Pricedale, Mississippi
Current Conditions -  °F | °C
As of 6:53 PM on Tuesday 27 Jan 2015 (Local Time) from KMCB Reporting Station
Clear Clear  
Wind Chill: 56°   Ceiling: Unl
Heat Index: 56°   Visibility: 10mi
Dew Point: 36°   Wind: 6mph
Humidity: 47%   Direction: 340°NNW
Pressure: 30.13"   Gusts: NA
Location:  31.2993°N, 90.4958°W
Report Text: KMCB 280053Z AUTO 34005KT 10SM CLR 13/02 A3013 RMK AO2 SLP200 T01330022
Loading
Personal Weather Stations






























Interactive Weather Map New forecast layout! Learn more

10-Day Weather Forecast

Advertisements
Track Severe Weather on mobile